createdAt,value
2023-06-19T00:02:16.370Z,8.70
2023-06-19T00:07:20.344Z,8.70
2023-06-19T00:12:23.167Z,10.00
2023-06-19T00:17:29.021Z,8.50
2023-06-19T00:22:32.118Z,8.30
2023-06-19T00:27:34.921Z,9.40
2023-06-19T00:32:47.546Z,8.70
2023-06-19T00:37:50.666Z,9.70
2023-06-19T00:42:53.537Z,8.60
2023-06-19T00:47:58.901Z,8.20
2023-06-19T00:53:04.641Z,9.20
2023-06-19T00:58:07.622Z,9.40
2023-06-19T01:03:10.760Z,8.60
2023-06-19T01:08:44.739Z,9.10
2023-06-19T01:13:59.448Z,9.00
2023-06-19T01:19:04.078Z,8.90
2023-06-19T01:24:06.989Z,9.90
2023-06-19T01:29:10.414Z,10.60
2023-06-19T01:34:16.095Z,8.70
2023-06-19T01:39:21.002Z,8.10
2023-06-19T01:44:24.012Z,8.90
2023-06-19T01:49:27.409Z,8.70
2023-06-19T01:54:30.228Z,9.90
2023-06-19T01:59:33.336Z,9.10
2023-06-19T02:04:36.118Z,9.30
2023-06-19T02:09:39.779Z,9.70
2023-06-19T02:14:43.083Z,9.70
2023-06-19T02:19:45.959Z,9.90
2023-06-19T02:24:48.776Z,9.80
2023-06-19T02:29:51.591Z,9.00
2023-06-19T02:34:54.391Z,10.10
2023-06-19T02:39:57.151Z,11.00
2023-06-19T02:45:04.475Z,10.70
2023-06-19T02:50:08.127Z,10.10
2023-06-19T02:55:10.940Z,9.20
2023-06-19T03:00:14.345Z,9.10
2023-06-19T03:05:17.309Z,8.70
2023-06-19T03:10:20.210Z,9.30
2023-06-19T03:15:23.107Z,9.90
2023-06-19T03:20:26.370Z,9.30
2023-06-19T03:25:35.978Z,9.20
2023-06-19T03:30:39.033Z,9.20
2023-06-19T03:35:42.203Z,8.70
2023-06-19T03:40:46.740Z,9.20
2023-06-19T03:45:49.759Z,8.30
2023-06-19T03:50:52.855Z,8.40
2023-06-19T03:55:56.816Z,9.40
2023-06-19T04:00:59.794Z,9.20
2023-06-19T04:06:02.795Z,9.80
2023-06-19T04:11:05.697Z,9.00
2023-06-19T04:16:08.524Z,10.20
2023-06-19T04:21:11.413Z,10.20
2023-06-19T04:26:14.234Z,11.50
2023-06-19T04:31:19.795Z,10.60
2023-06-19T04:36:22.687Z,11.50
2023-06-19T04:41:25.574Z,12.50
2023-06-19T04:46:28.361Z,14.90
2023-06-19T04:51:34.349Z,13.00
2023-06-19T04:56:37.122Z,13.50
2023-06-19T05:01:41.759Z,13.90
2023-06-19T05:06:44.560Z,14.20
2023-06-19T05:11:47.338Z,13.70
2023-06-19T05:16:50.314Z,13.40
2023-06-19T05:21:53.249Z,14.50
2023-06-19T05:26:56.041Z,13.20
2023-06-19T05:31:58.946Z,13.50
2023-06-19T05:37:04.765Z,14.70
2023-06-19T05:42:08.232Z,14.60
2023-06-19T05:47:11.135Z,14.80
2023-06-19T05:52:14.051Z,13.70
2023-06-19T05:57:17.372Z,14.10
2023-06-19T06:02:21.257Z,14.40
2023-06-19T06:07:24.085Z,12.70
2023-06-19T06:12:26.995Z,12.70
2023-06-19T06:17:30.007Z,13.20
2023-06-19T06:22:33.086Z,11.90
2023-06-19T06:27:36.027Z,11.90
2023-06-19T06:32:39.402Z,10.80
2023-06-19T06:37:42.481Z,11.00
2023-06-19T06:42:45.272Z,12.00
2023-06-19T06:47:48.657Z,11.50
2023-06-19T06:52:54.990Z,10.50
2023-06-19T06:57:58.239Z,9.70
2023-06-19T07:03:01.235Z,8.70
2023-06-19T07:08:05.003Z,9.00
2023-06-19T07:13:07.847Z,9.50
2023-06-19T07:18:10.738Z,9.40
2023-06-19T07:23:13.765Z,8.90
2023-06-19T07:28:16.780Z,9.40
2023-06-19T07:33:19.556Z,8.30
2023-06-19T07:38:23.569Z,8.00
2023-06-19T07:43:26.756Z,8.90
2023-06-19T07:48:29.635Z,7.40
2023-06-19T07:53:32.433Z,7.70
2023-06-19T07:58:35.286Z,7.80
2023-06-19T08:03:39.031Z,7.60
2023-06-19T08:08:42.194Z,7.90
2023-06-19T08:13:45.113Z,7.40
2023-06-19T08:18:48.395Z,7.30
2023-06-19T08:23:51.328Z,7.00
2023-06-19T08:28:54.354Z,6.50
2023-06-19T08:33:57.821Z,7.50
2023-06-19T08:39:09.597Z,6.80
2023-06-19T08:44:12.944Z,8.50
2023-06-19T08:49:16.651Z,7.80
2023-06-19T08:54:19.404Z,6.50
2023-06-19T08:59:23.263Z,6.80
2023-06-19T09:04:28.717Z,7.60
2023-06-19T09:09:34.168Z,6.70
2023-06-19T09:14:45.532Z,6.40
2023-06-19T09:19:53.621Z,7.30
2023-06-19T09:25:02.840Z,7.10
2023-06-19T09:30:09.343Z,6.80
2023-06-19T09:35:16.069Z,6.60
2023-06-19T09:40:27.692Z,6.50
2023-06-19T09:45:35.163Z,6.30
2023-06-19T09:50:40.653Z,6.90
2023-06-19T09:55:49.009Z,6.70
2023-06-19T10:01:15.264Z,6.60
2023-06-19T10:06:20.301Z,5.90
2023-06-19T10:11:57.167Z,6.20
2023-06-19T10:17:10.096Z,5.60
2023-06-19T10:22:21.546Z,5.90
2023-06-19T10:27:27.013Z,9.50
2023-06-19T10:32:32.452Z,6.00
2023-06-19T10:37:36.106Z,6.10
2023-06-19T10:42:49.680Z,5.80
2023-06-19T10:52:59.363Z,5.70
2023-06-19T10:58:02.324Z,5.50
2023-06-19T11:03:08.655Z,5.10
2023-06-19T11:08:11.832Z,5.20
2023-06-19T11:13:28.418Z,6.40
2023-06-19T11:18:46.790Z,5.50
2023-06-19T11:23:50.856Z,5.50
2023-06-19T11:28:54.972Z,5.40
2023-06-19T11:34:06.275Z,5.60
2023-06-19T11:39:16.863Z,5.60
2023-06-19T11:44:19.953Z,5.20
2023-06-19T11:49:25.867Z,6.00
2023-06-19T11:54:38.416Z,5.70
2023-06-19T11:59:42.557Z,4.90
2023-06-19T12:04:45.491Z,5.60
2023-06-19T12:09:48.488Z,5.30
2023-06-19T12:14:51.287Z,5.30
2023-06-19T12:19:54.482Z,5.60
2023-06-19T12:24:57.313Z,5.60
2023-06-19T12:30:00.353Z,5.80
2023-06-19T12:35:07.565Z,5.70
2023-06-19T12:40:12.232Z,5.10
2023-06-19T12:45:15.119Z,4.90
2023-06-19T12:50:18.120Z,5.30
2023-06-19T12:55:24.073Z,5.50
2023-06-19T13:00:27.094Z,5.40
2023-06-19T13:05:30.412Z,5.50
2023-06-19T13:10:33.412Z,5.40
2023-06-19T13:15:40.843Z,5.70
2023-06-19T13:20:46.626Z,5.10
2023-06-19T13:25:49.517Z,5.70
2023-06-19T13:30:52.596Z,5.60
2023-06-19T13:35:55.861Z,5.20
2023-06-19T13:40:58.728Z,5.50
2023-06-19T13:46:09.480Z,5.30
2023-06-19T13:51:19.098Z,5.80
2023-06-19T13:56:28.106Z,5.30
2023-06-19T14:01:31.137Z,5.20
2023-06-19T14:06:34.397Z,5.10
2023-06-19T14:11:37.498Z,5.20
2023-06-19T14:16:40.417Z,5.00
2023-06-19T14:21:43.274Z,4.80
2023-06-19T14:26:46.195Z,5.00
2023-06-19T14:31:49.036Z,4.50
2023-06-19T14:36:52.187Z,5.60
2023-06-19T14:41:55.102Z,5.90
2023-06-19T14:46:59.551Z,5.60
2023-06-19T14:52:02.649Z,6.50
2023-06-19T14:57:10.254Z,5.60
2023-06-19T15:02:16.103Z,5.20
2023-06-19T15:07:19.411Z,5.20
2023-06-19T15:12:24.534Z,5.20
2023-06-19T15:17:27.441Z,5.10
2023-06-19T15:22:30.333Z,5.10
2023-06-19T15:27:35.927Z,5.10
2023-06-19T15:32:40.374Z,5.10
2023-06-19T15:37:43.977Z,5.00
2023-06-19T15:42:47.164Z,5.80
2023-06-19T15:47:50.460Z,5.10
2023-06-19T15:53:00.912Z,5.50
2023-06-19T15:58:05.838Z,5.50
2023-06-19T16:03:21.817Z,5.40
2023-06-19T16:08:32.244Z,5.10
2023-06-19T16:13:35.182Z,5.10
2023-06-19T16:18:37.965Z,5.30
2023-06-19T16:23:41.879Z,4.80
2023-06-19T16:28:46.367Z,4.30
2023-06-19T16:33:49.185Z,5.10
2023-06-19T16:38:53.060Z,5.20
2023-06-19T16:43:56.939Z,5.00
2023-06-19T16:49:01.574Z,4.90
2023-06-19T16:54:06.846Z,5.20
2023-06-19T16:59:11.181Z,4.70
2023-06-19T17:04:14.149Z,4.40
2023-06-19T17:09:18.267Z,6.60
2023-06-19T17:14:21.820Z,8.90
2023-06-19T17:19:24.693Z,5.70
2023-06-19T17:24:27.721Z,4.90
2023-06-19T17:29:30.895Z,5.20
2023-06-19T17:34:33.702Z,4.80
2023-06-19T17:39:36.519Z,5.10
2023-06-19T17:44:40.881Z,5.30
2023-06-19T17:49:44.423Z,4.60
2023-06-19T17:54:51.494Z,4.80
2023-06-19T17:59:55.976Z,5.20
2023-06-19T18:05:03.129Z,4.90
2023-06-19T18:10:07.094Z,5.30
2023-06-19T18:15:10.481Z,4.80
2023-06-19T18:20:13.741Z,6.00
2023-06-19T18:25:16.679Z,6.40
2023-06-19T18:30:19.601Z,5.90
2023-06-19T18:35:23.073Z,6.70
2023-06-19T18:40:28.199Z,5.20
2023-06-19T18:45:31.847Z,6.80
2023-06-19T18:50:35.631Z,6.20
2023-06-19T18:55:43.210Z,6.00
2023-06-19T19:00:50.180Z,7.10
2023-06-19T19:05:55.951Z,9.10
2023-06-19T19:10:58.866Z,8.20
2023-06-19T19:16:01.985Z,6.80
2023-06-19T19:21:06.366Z,6.70
2023-06-19T19:26:09.279Z,7.40
2023-06-19T19:31:16.160Z,7.10
2023-06-19T19:36:20.234Z,7.80
2023-06-19T19:41:29.347Z,8.20
2023-06-19T19:46:32.274Z,8.30
2023-06-19T19:51:35.299Z,16.90
2023-06-19T19:56:38.152Z,19.30
2023-06-19T20:01:41.067Z,12.30
2023-06-19T20:06:45.909Z,10.90
2023-06-19T20:11:48.730Z,10.20
2023-06-19T20:16:52.064Z,8.70
2023-06-19T20:21:54.902Z,8.50
2023-06-19T20:26:58.617Z,8.40
2023-06-19T20:32:01.508Z,7.40
2023-06-19T20:37:08.793Z,7.90
2023-06-19T20:42:13.498Z,8.10
2023-06-19T20:47:19.754Z,8.10
2023-06-19T20:52:22.617Z,7.70
2023-06-19T20:57:25.430Z,8.30
2023-06-19T21:02:31.442Z,8.00
2023-06-19T21:07:34.899Z,7.90
2023-06-19T21:12:41.398Z,8.10
2023-06-19T21:17:47.903Z,8.10
2023-06-19T21:22:51.150Z,8.30
2023-06-19T21:27:53.970Z,8.70
2023-06-19T21:32:57.050Z,8.80
2023-06-19T21:37:59.948Z,8.30
2023-06-19T21:43:02.769Z,8.70
2023-06-19T21:48:06.033Z,8.20
2023-06-19T21:53:10.533Z,8.60
2023-06-19T21:58:13.591Z,8.70
2023-06-19T22:03:16.586Z,8.40
2023-06-19T22:08:27.215Z,8.10
2023-06-19T22:13:40.697Z,8.70
2023-06-19T22:18:43.525Z,9.40
2023-06-19T22:23:48.325Z,10.60
2023-06-19T22:33:54.966Z,11.10
2023-06-19T22:38:57.784Z,12.00
2023-06-19T22:44:02.680Z,12.20
2023-06-19T22:49:05.474Z,9.70
2023-06-19T22:54:08.707Z,9.50
2023-06-19T22:59:12.323Z,10.20
2023-06-19T23:04:15.173Z,10.90
2023-06-19T23:09:19.057Z,10.10
2023-06-19T23:14:21.838Z,10.10
2023-06-19T23:19:27.668Z,10.40
2023-06-19T23:24:33.180Z,10.60
2023-06-19T23:29:37.314Z,10.20
2023-06-19T23:34:40.318Z,10.70
2023-06-19T23:39:43.260Z,10.40
2023-06-19T23:44:46.225Z,10.90
2023-06-19T23:49:50.330Z,11.70
2023-06-19T23:54:53.203Z,10.90
2023-06-19T23:59:56.114Z,11.20
